createdAt,value
2019-02-27T00:01:00.096Z,0
2019-02-27T00:02:00.664Z,0
2019-02-27T00:03:01.232Z,0
2019-02-27T00:04:02.514Z,0
2019-02-27T00:05:03.357Z,0
2019-02-27T00:06:03.923Z,0
2019-02-27T00:07:04.488Z,0
2019-02-27T00:08:05.054Z,0
2019-02-27T00:09:05.619Z,0
2019-02-27T00:10:06.818Z,0
2019-02-27T00:11:07.363Z,0
2019-02-27T00:12:07.931Z,0
2019-02-27T00:13:08.496Z,0
2019-02-27T00:14:09.063Z,0
2019-02-27T00:15:09.628Z,0
2019-02-27T00:16:11.035Z,0
2019-02-27T00:17:10.767Z,0
2019-02-27T00:18:11.334Z,0
2019-02-27T00:19:11.903Z,0
2019-02-27T00:20:12.469Z,0
2019-02-27T00:21:13.036Z,0
2019-02-27T00:22:17.267Z,0
2019-02-27T00:23:15.164Z,0
2019-02-27T00:24:15.730Z,0
2019-02-27T00:25:16.308Z,0
2019-02-27T00:26:17.025Z,0
2019-02-27T00:27:17.592Z,0
2019-02-27T00:28:18.158Z,0
2019-02-27T00:29:18.724Z,0
2019-02-27T00:30:19.289Z,0
2019-02-27T00:31:19.856Z,0
2019-02-27T00:32:20.422Z,0
2019-02-27T00:33:24.913Z,0
2019-02-27T00:34:22.550Z,0
2019-02-27T00:35:23.116Z,0
2019-02-27T00:36:23.683Z,0
2019-02-27T00:37:24.249Z,0
2019-02-27T00:38:25.289Z,0
2019-02-27T00:39:25.391Z,0
2019-02-27T00:40:25.954Z,0
2019-02-27T00:41:26.524Z,0
2019-02-27T00:42:33.495Z,0
2019-02-27T00:43:29.083Z,0
2019-02-27T00:44:34.048Z,0
2019-02-27T00:45:31.165Z,0
2019-02-27T00:46:31.832Z,0
2019-02-27T00:47:32.402Z,0
2019-02-27T00:48:32.979Z,0
2019-02-27T00:49:33.545Z,0
2019-02-27T00:50:34.113Z,0
2019-02-27T00:51:34.679Z,0
2019-02-27T00:52:35.247Z,0
2019-02-27T00:53:35.815Z,0
2019-02-27T00:54:36.381Z,0
2019-02-27T00:55:39.393Z,0
2019-02-27T00:56:38.505Z,0
2019-02-27T00:57:39.071Z,0
2019-02-27T00:58:39.637Z,0
2019-02-27T00:59:40.203Z,0
2019-02-27T01:00:40.774Z,0
2019-02-27T01:01:41.334Z,0
2019-02-27T01:02:41.900Z,0
2019-02-27T01:03:42.465Z,0
2019-02-27T01:04:43.032Z,0
2019-02-27T01:05:43.599Z,0
2019-02-27T01:06:45.057Z,0
2019-02-27T01:07:45.725Z,0
2019-02-27T01:08:46.303Z,0
2019-02-27T01:09:46.877Z,0
2019-02-27T01:10:47.441Z,0
2019-02-27T01:11:51.545Z,0
2019-02-27T01:12:49.573Z,0
2019-02-27T01:13:50.140Z,0
2019-02-27T01:14:50.706Z,0
2019-02-27T01:15:51.272Z,0
2019-02-27T01:16:51.838Z,0
2019-02-27T01:17:52.404Z,0
2019-02-27T01:18:52.970Z,0
2019-02-27T01:19:53.536Z,0
2019-02-27T01:20:54.100Z,0
2019-02-27T01:21:54.665Z,0
2019-02-27T01:22:55.230Z,0
2019-02-27T01:23:55.799Z,0
2019-02-27T01:24:56.362Z,0
2019-02-27T01:25:57.158Z,0
2019-02-27T01:26:57.503Z,0
2019-02-27T01:27:58.070Z,0
2019-02-27T01:28:58.645Z,0
2019-02-27T01:29:59.210Z,0
2019-02-27T01:30:59.776Z,0
2019-02-27T01:32:00.592Z,0
2019-02-27T01:33:03.955Z,0
2019-02-27T01:34:02.735Z,0
2019-02-27T01:35:03.299Z,0
2019-02-27T01:36:03.862Z,0
2019-02-27T01:37:04.428Z,0
2019-02-27T01:38:05.842Z,0
2019-02-27T01:39:05.567Z,0
2019-02-27T01:40:06.480Z,0
2019-02-27T01:41:07.046Z,0
2019-02-27T01:42:07.612Z,0
2019-02-27T01:43:08.179Z,0
2019-02-27T01:44:11.154Z,0
2019-02-27T01:45:10.304Z,0
2019-02-27T01:46:10.873Z,0
2019-02-27T01:47:11.448Z,0
2019-02-27T01:48:12.014Z,0
2019-02-27T01:49:15.930Z,0
2019-02-27T01:50:14.139Z,0
2019-02-27T01:51:14.707Z,0
2019-02-27T01:52:15.273Z,0
2019-02-27T01:53:15.847Z,0
2019-02-27T01:54:16.425Z,0
2019-02-27T01:55:16.990Z,0
2019-02-27T01:56:17.557Z,0
2019-02-27T01:57:18.123Z,0
2019-02-27T01:58:18.689Z,0
2019-02-27T01:59:19.262Z,0
2019-02-27T02:00:23.065Z,0
2019-02-27T02:01:21.393Z,0
2019-02-27T02:02:21.958Z,0
2019-02-27T02:03:22.524Z,0
2019-02-27T02:04:23.089Z,0
2019-02-27T02:05:26.343Z,0
2019-02-27T02:06:25.215Z,0
2019-02-27T02:07:25.792Z,0
2019-02-27T02:08:26.357Z,0
2019-02-27T02:09:26.925Z,0
2019-02-27T02:10:28.262Z,0
2019-02-27T02:11:28.065Z,0
2019-02-27T02:12:28.635Z,0
2019-02-27T02:13:29.199Z,0
2019-02-27T02:14:29.774Z,0
2019-02-27T02:15:30.340Z,0
2019-02-27T02:16:34.139Z,0
2019-02-27T02:17:32.467Z,0
2019-02-27T02:18:33.033Z,0
2019-02-27T02:19:33.598Z,0
2019-02-27T02:20:34.163Z,0
2019-02-27T02:21:35.042Z,0
2019-02-27T02:22:35.540Z,0
2019-02-27T02:23:36.106Z,0
2019-02-27T02:24:36.672Z,0
2019-02-27T02:25:37.251Z,0
2019-02-27T02:26:37.817Z,0
2019-02-27T02:27:39.117Z,0
2019-02-27T02:28:39.944Z,0
2019-02-27T02:29:40.509Z,0
2019-02-27T02:30:41.077Z,0
2019-02-27T02:31:42.605Z,0
2019-02-27T02:32:43.143Z,0
2019-02-27T02:33:43.705Z,0
2019-02-27T02:34:44.271Z,0
2019-02-27T02:35:49.934Z,0
2019-02-27T02:36:46.401Z,0
2019-02-27T02:37:46.976Z,0
2019-02-27T02:38:47.557Z,0
2019-02-27T02:39:54.208Z,0
2019-02-27T02:40:49.677Z,0
2019-02-27T02:41:50.245Z,0
2019-02-27T02:42:50.823Z,0
2019-02-27T02:43:51.388Z,0
2019-02-27T02:44:57.240Z,0
2019-02-27T02:45:53.514Z,0
2019-02-27T02:46:54.093Z,0
2019-02-27T02:47:55.888Z,0
2019-02-27T02:48:55.232Z,0
2019-02-27T02:49:55.818Z,0
2019-02-27T02:50:56.390Z,0
2019-02-27T02:51:56.954Z,0
2019-02-27T02:52:57.527Z,0
2019-02-27T02:54:01.720Z,0
2019-02-27T02:54:59.657Z,0
2019-02-27T02:56:00.234Z,0
2019-02-27T02:57:01.953Z,0
2019-02-27T02:58:01.372Z,0
2019-02-27T02:59:01.949Z,0
2019-02-27T03:00:02.537Z,0
2019-02-27T03:01:03.120Z,0
2019-02-27T03:02:03.674Z,0
2019-02-27T03:03:04.234Z,0
2019-02-27T03:04:04.799Z,0
2019-02-27T03:05:05.363Z,0
2019-02-27T03:06:05.929Z,0
2019-02-27T03:07:07.255Z,0
2019-02-27T03:08:08.056Z,0
2019-02-27T03:09:08.630Z,0
2019-02-27T03:10:09.197Z,0
2019-02-27T03:11:09.762Z,0
2019-02-27T03:12:10.337Z,0
2019-02-27T03:13:10.903Z,0
2019-02-27T03:14:16.868Z,0
2019-02-27T03:15:12.040Z,0
2019-02-27T03:16:12.604Z,0
2019-02-27T03:17:17.929Z,0
2019-02-27T03:18:14.730Z,0
2019-02-27T03:19:15.306Z,0
2019-02-27T03:20:17.618Z,0
2019-02-27T03:21:17.432Z,0
2019-02-27T03:22:18.006Z,0
2019-02-27T03:23:18.564Z,0
2019-02-27T03:24:19.129Z,0
2019-02-27T03:25:19.711Z,0
2019-02-27T03:26:20.282Z,0
2019-02-27T03:27:20.851Z,0
2019-02-27T03:28:21.562Z,0
2019-02-27T03:29:22.128Z,0
2019-02-27T03:30:34.091Z,0
2019-02-27T03:31:24.278Z,0
2019-02-27T03:32:24.828Z,0
2019-02-27T03:33:27.204Z,0
2019-02-27T03:34:26.954Z,0
2019-02-27T03:35:29.261Z,0
2019-02-27T03:36:29.094Z,0
2019-02-27T03:37:29.629Z,0
2019-02-27T03:38:30.207Z,0
2019-02-27T03:39:34.642Z,0
2019-02-27T03:40:32.337Z,0
2019-02-27T03:41:32.984Z,0
2019-02-27T03:42:34.241Z,0
2019-02-27T03:43:35.132Z,0
2019-02-27T03:44:35.696Z,0
2019-02-27T03:45:36.264Z,0
2019-02-27T03:46:40.863Z,0
2019-02-27T03:47:38.388Z,0
2019-02-27T03:48:38.963Z,0
2019-02-27T03:49:40.670Z,0
2019-02-27T03:50:41.090Z,0
2019-02-27T03:51:41.654Z,0
2019-02-27T03:52:42.218Z,0
2019-02-27T03:53:43.257Z,0
2019-02-27T03:54:44.346Z,0
2019-02-27T03:55:44.919Z,0
2019-02-27T03:56:45.482Z,0
2019-02-27T03:57:46.045Z,0
2019-02-27T03:58:46.611Z,0
2019-02-27T03:59:47.176Z,0
2019-02-27T04:00:52.613Z,0
2019-02-27T04:01:49.301Z,0
2019-02-27T04:02:49.867Z,0
2019-02-27T04:03:54.205Z,0
2019-02-27T04:04:51.005Z,0
2019-02-27T04:05:51.573Z,0
2019-02-27T04:06:53.092Z,0
2019-02-27T04:07:53.696Z,0
2019-02-27T04:08:54.272Z,0
2019-02-27T04:09:55.309Z,0
2019-02-27T04:10:56.404Z,0
2019-02-27T04:11:56.973Z,0
2019-02-27T04:12:57.548Z,0
2019-02-27T04:14:03.402Z,0
2019-02-27T04:14:59.665Z,0
2019-02-27T04:16:00.233Z,0
2019-02-27T04:17:05.165Z,0
2019-02-27T04:18:02.354Z,0
2019-02-27T04:19:04.431Z,0
2019-02-27T04:20:03.498Z,0
2019-02-27T04:21:04.064Z,0
2019-02-27T04:22:04.663Z,0
2019-02-27T04:23:05.210Z,0
2019-02-27T04:24:06.766Z,0
2019-02-27T04:25:07.329Z,0
2019-02-27T04:26:07.897Z,0
2019-02-27T04:27:08.461Z,0
2019-02-27T04:28:09.028Z,0
2019-02-27T04:29:09.593Z,0
2019-02-27T04:30:14.800Z,0
2019-02-27T04:31:11.719Z,0
2019-02-27T04:32:13.168Z,0
2019-02-27T04:33:13.782Z,0
2019-02-27T04:34:14.357Z,0
2019-02-27T04:35:14.916Z,0
2019-02-27T04:36:15.494Z,0
2019-02-27T04:37:17.751Z,0
2019-02-27T04:38:17.616Z,0
2019-02-27T04:39:18.187Z,0
2019-02-27T04:40:18.749Z,0
2019-02-27T04:41:19.316Z,0
2019-02-27T04:42:19.883Z,0
2019-02-27T04:43:20.446Z,0
2019-02-27T04:44:21.111Z,0
2019-02-27T04:45:21.677Z,0
2019-02-27T04:46:22.446Z,0
2019-02-27T04:47:22.953Z,0
2019-02-27T04:48:23.519Z,0
2019-02-27T04:49:24.088Z,0
2019-02-27T04:50:24.651Z,0
2019-02-27T04:51:25.216Z,0
2019-02-27T04:52:25.783Z,0
2019-02-27T04:53:28.817Z,0
2019-02-27T04:54:27.921Z,0
2019-02-27T04:55:28.498Z,0
2019-02-27T04:56:29.064Z,0
2019-02-27T04:57:33.395Z,0
2019-02-27T04:58:31.368Z,0
2019-02-27T04:59:31.772Z,0
2019-02-27T05:00:32.336Z,0
2019-02-27T05:01:36.379Z,0
2019-02-27T05:02:34.460Z,0
2019-02-27T05:03:35.025Z,0
2019-02-27T05:04:35.858Z,0
2019-02-27T05:05:38.951Z,0
2019-02-27T05:06:37.942Z,0
2019-02-27T05:07:38.507Z,0
2019-02-27T05:08:39.071Z,0
2019-02-27T05:09:39.636Z,0
2019-02-27T05:10:40.564Z,0
2019-02-27T05:11:41.708Z,0
2019-02-27T05:12:42.274Z,0
2019-02-27T05:13:42.839Z,0
2019-02-27T05:14:43.410Z,0
2019-02-27T05:15:43.984Z,0
2019-02-27T05:16:46.970Z,0
2019-02-27T05:17:46.107Z,0
2019-02-27T05:18:46.670Z,0
2019-02-27T05:19:47.239Z,0
2019-02-27T05:20:47.802Z,0
2019-02-27T05:21:52.294Z,0
2019-02-27T05:22:48.945Z,0
2019-02-27T05:23:49.509Z,0
2019-02-27T05:24:50.075Z,0
2019-02-27T05:25:50.641Z,0
2019-02-27T05:26:51.209Z,0
2019-02-27T05:27:51.790Z,0
2019-02-27T05:28:52.351Z,0
2019-02-27T05:29:52.913Z,0
2019-02-27T05:30:53.477Z,0
2019-02-27T05:31:54.041Z,0
2019-02-27T05:32:54.606Z,0
2019-02-27T05:33:55.171Z,0
2019-02-27T05:34:55.736Z,0
2019-02-27T05:35:57.165Z,0
2019-02-27T05:36:57.859Z,0
2019-02-27T05:37:58.425Z,0
2019-02-27T05:38:58.990Z,0
2019-02-27T05:39:59.557Z,0
2019-02-27T05:41:00.635Z,0
2019-02-27T05:42:00.954Z,0
2019-02-27T05:43:01.265Z,0
2019-02-27T05:44:01.833Z,0
2019-02-27T05:45:02.407Z,0
2019-02-27T05:46:03.262Z,0
2019-02-27T05:47:04.283Z,0
2019-02-27T05:48:04.848Z,0
2019-02-27T05:49:05.412Z,0
2019-02-27T05:50:05.976Z,0
2019-02-27T05:51:07.686Z,0
2019-02-27T05:52:08.100Z,0
2019-02-27T05:53:10.523Z,0
2019-02-27T05:54:10.242Z,0
2019-02-27T05:55:10.794Z,0
2019-02-27T05:56:15.596Z,0
2019-02-27T05:57:12.918Z,0
2019-02-27T05:58:13.480Z,0
2019-02-27T05:59:14.045Z,0
2019-02-27T06:00:14.623Z,0
2019-02-27T06:01:15.197Z,0
2019-02-27T06:02:15.762Z,4
2019-02-27T06:03:18.339Z,0
2019-02-27T06:04:18.215Z,0
2019-02-27T06:05:18.763Z,4
2019-02-27T06:06:19.328Z,0
2019-02-27T06:07:19.899Z,4
2019-02-27T06:08:20.461Z,0
2019-02-27T06:09:21.028Z,4
2019-02-27T06:10:23.418Z,4
2019-02-27T06:11:23.151Z,4
2019-02-27T06:12:23.716Z,4
2019-02-27T06:13:24.282Z,4
2019-02-27T06:14:24.864Z,8
2019-02-27T06:15:26.000Z,8
2019-02-27T06:16:26.997Z,12
2019-02-27T06:17:27.596Z,12
2019-02-27T06:18:28.131Z,12
2019-02-27T06:19:30.616Z,16
2019-02-27T06:20:30.267Z,12
2019-02-27T06:21:30.835Z,16
2019-02-27T06:22:31.415Z,20
2019-02-27T06:23:31.982Z,20
2019-02-27T06:24:32.549Z,24
2019-02-27T06:25:33.117Z,28
2019-02-27T06:26:33.695Z,28
2019-02-27T06:27:34.265Z,32
2019-02-27T06:28:34.828Z,32
2019-02-27T06:29:35.398Z,36
2019-02-27T06:30:35.960Z,40
2019-02-27T06:31:38.833Z,40
2019-02-27T06:32:38.087Z,44
2019-02-27T06:33:38.654Z,48
2019-02-27T06:34:39.222Z,48
2019-02-27T06:35:39.787Z,56
2019-02-27T06:36:42.793Z,56
2019-02-27T06:37:41.928Z,60
2019-02-27T06:38:42.492Z,64
2019-02-27T06:39:43.058Z,68
2019-02-27T06:40:43.626Z,68
2019-02-27T06:41:44.206Z,72
2019-02-27T06:42:44.769Z,80
2019-02-27T06:43:45.335Z,80
2019-02-27T06:44:45.902Z,84
2019-02-27T06:45:46.685Z,88
2019-02-27T06:46:47.185Z,92
2019-02-27T06:47:47.750Z,92
2019-02-27T06:48:48.319Z,100
2019-02-27T06:49:49.045Z,104
2019-02-27T06:50:50.446Z,104
2019-02-27T06:51:51.015Z,108
2019-02-27T06:52:51.582Z,112
2019-02-27T06:53:52.149Z,116
2019-02-27T06:54:52.935Z,116
2019-02-27T06:55:53.592Z,120
2019-02-27T06:56:54.160Z,128
2019-02-27T06:57:54.726Z,128
2019-02-27T06:58:55.293Z,132
2019-02-27T06:59:57.138Z,136
2019-02-27T07:00:57.433Z,140
2019-02-27T07:01:58.001Z,140
2019-02-27T07:02:58.571Z,144
2019-02-27T07:03:59.138Z,148
2019-02-27T07:04:59.705Z,152
2019-02-27T07:06:00.271Z,152
2019-02-27T07:07:00.837Z,156
2019-02-27T07:08:02.175Z,160
2019-02-27T07:09:02.967Z,164
2019-02-27T07:10:03.540Z,168
2019-02-27T07:11:10.612Z,168
2019-02-27T07:12:07.206Z,172
2019-02-27T07:13:07.246Z,172
2019-02-27T07:14:07.807Z,176
2019-02-27T07:15:10.320Z,180
2019-02-27T07:16:09.946Z,180
2019-02-27T07:17:10.512Z,184
2019-02-27T07:18:11.970Z,184
2019-02-27T07:19:13.180Z,188
2019-02-27T07:20:14.062Z,188
2019-02-27T07:21:14.638Z,192
2019-02-27T07:22:15.199Z,192
2019-02-27T07:23:15.766Z,200
2019-02-27T07:24:16.336Z,200
2019-02-27T07:25:16.918Z,200
2019-02-27T07:26:17.495Z,200
2019-02-27T07:27:18.061Z,204
2019-02-27T07:28:18.628Z,208
2019-02-27T07:29:21.933Z,208
2019-02-27T07:30:20.758Z,208
2019-02-27T07:31:23.323Z,212
2019-02-27T07:32:22.891Z,212
2019-02-27T07:33:23.459Z,216
2019-02-27T07:34:24.030Z,216
2019-02-27T07:35:26.630Z,220
2019-02-27T07:36:26.158Z,220
2019-02-27T07:37:26.727Z,224
2019-02-27T07:38:27.294Z,224
2019-02-27T07:39:27.862Z,228
2019-02-27T07:40:28.431Z,228
2019-02-27T07:41:28.999Z,228
2019-02-27T07:42:31.969Z,232
2019-02-27T07:43:31.134Z,236
2019-02-27T07:44:32.251Z,236
2019-02-27T07:45:33.276Z,240
2019-02-27T07:46:35.516Z,240
2019-02-27T07:47:35.409Z,244
2019-02-27T07:48:35.977Z,248
2019-02-27T07:49:36.558Z,248
2019-02-27T07:50:37.128Z,248
2019-02-27T07:51:37.695Z,248
2019-02-27T07:52:38.263Z,252
2019-02-27T07:53:38.834Z,252
2019-02-27T07:54:39.413Z,256
2019-02-27T07:55:39.984Z,256
2019-02-27T07:56:40.555Z,256
2019-02-27T07:57:41.124Z,260
2019-02-27T07:58:41.693Z,260
2019-02-27T07:59:42.260Z,260
2019-02-27T08:00:42.938Z,260
2019-02-27T08:01:44.168Z,264
2019-02-27T08:02:44.761Z,268
2019-02-27T08:03:45.801Z,264
2019-02-27T08:04:46.350Z,268
2019-02-27T08:05:46.917Z,268
2019-02-27T08:06:47.488Z,272
2019-02-27T08:07:49.067Z,272
2019-02-27T08:08:49.618Z,292
2019-02-27T08:09:50.189Z,292
2019-02-27T08:10:50.758Z,276
2019-02-27T08:11:51.339Z,276
2019-02-27T08:12:55.635Z,280
2019-02-27T08:13:52.497Z,280
2019-02-27T08:14:53.079Z,280
2019-02-27T08:15:53.646Z,280
2019-02-27T08:16:56.940Z,284
2019-02-27T08:17:57.969Z,284
2019-02-27T08:18:56.356Z,288
2019-02-27T08:19:56.926Z,288
2019-02-27T08:20:57.496Z,288
2019-02-27T08:21:58.065Z,288
2019-02-27T08:22:58.635Z,292
2019-02-27T08:23:59.206Z,292
2019-02-27T08:24:59.787Z,292
2019-02-27T08:26:04.735Z,292
2019-02-27T08:27:01.931Z,296
2019-02-27T08:28:02.501Z,296
2019-02-27T08:29:03.070Z,296
2019-02-27T08:30:03.639Z,300
2019-02-27T08:31:04.222Z,300
2019-02-27T08:32:05.498Z,304
2019-02-27T08:33:08.395Z,300
2019-02-27T08:34:07.703Z,304
2019-02-27T08:35:08.273Z,304
2019-02-27T08:36:08.840Z,308
2019-02-27T08:37:09.409Z,304
2019-02-27T08:38:09.981Z,308
2019-02-27T08:39:10.561Z,308
2019-02-27T08:40:11.134Z,308
2019-02-27T08:41:11.698Z,312
2019-02-27T08:42:12.268Z,312
2019-02-27T08:43:12.848Z,312
2019-02-27T08:44:13.417Z,316
2019-02-27T08:45:19.605Z,316
2019-02-27T08:46:15.551Z,316
2019-02-27T08:47:16.123Z,316
2019-02-27T08:48:17.554Z,316
2019-02-27T08:49:17.278Z,320
2019-02-27T08:50:17.851Z,320
2019-02-27T08:51:18.419Z,320
2019-02-27T08:52:18.990Z,320
2019-02-27T08:53:19.558Z,324
2019-02-27T08:54:20.129Z,324
2019-02-27T08:55:22.508Z,324
2019-02-27T08:56:21.281Z,324
2019-02-27T08:57:21.851Z,324
2019-02-27T08:58:22.431Z,324
2019-02-27T08:59:23.001Z,324
2019-02-27T09:00:23.579Z,328
2019-02-27T09:01:24.143Z,328
2019-02-27T09:02:29.243Z,328
2019-02-27T09:03:26.278Z,328
2019-02-27T09:04:26.850Z,328
2019-02-27T09:05:27.419Z,332
2019-02-27T09:06:28.271Z,332
2019-02-27T09:07:28.566Z,336
2019-02-27T09:08:31.333Z,336
2019-02-27T09:09:30.712Z,336
2019-02-27T09:10:31.280Z,336
2019-02-27T09:11:31.850Z,336
2019-02-27T09:12:32.422Z,336
2019-02-27T09:13:32.994Z,340
2019-02-27T09:14:33.564Z,340
2019-02-27T09:15:34.133Z,340
2019-02-27T09:16:34.705Z,340
2019-02-27T09:17:35.272Z,340
2019-02-27T09:18:36.518Z,344
2019-02-27T09:19:36.422Z,344
2019-02-27T09:20:36.992Z,344
2019-02-27T09:21:37.563Z,344
2019-02-27T09:22:38.143Z,344
2019-02-27T09:23:38.708Z,348
2019-02-27T09:24:39.290Z,348
2019-02-27T09:25:39.860Z,352
2019-02-27T09:26:42.343Z,352
2019-02-27T09:27:42.001Z,352
2019-02-27T09:28:44.514Z,352
2019-02-27T09:29:44.138Z,352
2019-02-27T09:30:44.708Z,356
2019-02-27T09:31:50.723Z,356
2019-02-27T09:32:46.844Z,356
2019-02-27T09:33:47.414Z,356
2019-02-27T09:34:47.997Z,356
2019-02-27T09:35:48.581Z,356
2019-02-27T09:36:49.260Z,364
2019-02-27T09:37:51.226Z,360
2019-02-27T09:38:51.298Z,360
2019-02-27T09:39:51.870Z,360
2019-02-27T09:40:52.441Z,360
2019-02-27T09:41:53.025Z,360
2019-02-27T09:42:53.933Z,364
2019-02-27T09:43:54.186Z,364
2019-02-27T09:44:54.758Z,368
2019-02-27T09:45:55.343Z,368
2019-02-27T09:46:55.924Z,368
2019-02-27T09:47:59.625Z,368
2019-02-27T09:48:58.062Z,368
2019-02-27T09:49:58.637Z,372
2019-02-27T09:50:59.206Z,372
2019-02-27T09:51:59.776Z,372
2019-02-27T09:53:01.109Z,372
2019-02-27T09:54:01.913Z,372
2019-02-27T09:55:02.487Z,372
2019-02-27T09:56:03.057Z,376
2019-02-27T09:57:03.634Z,380
2019-02-27T09:58:04.202Z,376
2019-02-27T09:59:04.773Z,380
2019-02-27T10:00:05.356Z,380
2019-02-27T10:01:05.930Z,380
2019-02-27T10:02:09.289Z,380
2019-02-27T10:03:08.067Z,384
2019-02-27T10:04:09.679Z,384
2019-02-27T10:05:10.208Z,384
2019-02-27T10:06:10.779Z,384
2019-02-27T10:07:11.353Z,384
2019-02-27T10:08:11.923Z,388
2019-02-27T10:09:12.509Z,388
2019-02-27T10:10:13.081Z,388
2019-02-27T10:11:13.653Z,392
2019-02-27T10:12:14.241Z,392
2019-02-27T10:13:14.812Z,392
2019-02-27T10:14:16.383Z,392
2019-02-27T10:15:15.975Z,392
2019-02-27T10:16:16.547Z,392
2019-02-27T10:17:17.120Z,392
2019-02-27T10:18:18.952Z,396
2019-02-27T10:19:19.260Z,396
2019-02-27T10:20:19.842Z,396
2019-02-27T10:21:20.406Z,396
2019-02-27T10:22:21.190Z,396
2019-02-27T10:23:21.561Z,400
2019-02-27T10:24:22.134Z,400
2019-02-27T10:25:22.710Z,400
2019-02-27T10:26:23.291Z,400
2019-02-27T10:27:28.420Z,404
2019-02-27T10:28:25.430Z,404
2019-02-27T10:29:26.004Z,404
2019-02-27T10:30:26.576Z,404
2019-02-27T10:31:27.150Z,404
2019-02-27T10:32:27.724Z,404
2019-02-27T10:33:28.297Z,408
2019-02-27T10:34:28.871Z,408
2019-02-27T10:35:30.074Z,408
2019-02-27T10:36:30.649Z,408
2019-02-27T10:37:31.306Z,412
2019-02-27T10:38:31.808Z,408
2019-02-27T10:39:36.891Z,412
2019-02-27T10:40:33.950Z,408
2019-02-27T10:41:34.523Z,412
2019-02-27T10:42:35.110Z,408
2019-02-27T10:43:35.684Z,412
2019-02-27T10:44:36.257Z,412
2019-02-27T10:45:36.831Z,416
2019-02-27T10:46:37.415Z,416
2019-02-27T10:47:39.932Z,412
2019-02-27T10:48:39.557Z,412
2019-02-27T10:49:40.142Z,412
2019-02-27T10:50:40.718Z,412
2019-02-27T10:51:41.490Z,412
2019-02-27T10:52:42.861Z,416
2019-02-27T10:53:43.432Z,416
2019-02-27T10:54:44.005Z,416
2019-02-27T10:55:46.467Z,412
2019-02-27T10:56:46.149Z,412
2019-02-27T10:57:46.721Z,416
2019-02-27T10:58:48.182Z,416
2019-02-27T10:59:48.722Z,412
2019-02-27T11:00:49.296Z,412
2019-02-27T11:01:49.870Z,412
2019-02-27T11:02:52.453Z,412
2019-02-27T11:03:51.027Z,412
2019-02-27T11:04:51.613Z,416
2019-02-27T11:05:55.369Z,416
2019-02-27T11:06:52.770Z,416
2019-02-27T11:07:53.752Z,416
2019-02-27T11:08:53.928Z,416
2019-02-27T11:09:54.501Z,416
2019-02-27T11:10:55.076Z,416
2019-02-27T11:11:55.661Z,416
2019-02-27T11:12:56.237Z,416
2019-02-27T11:13:56.824Z,420
2019-02-27T11:14:57.396Z,416
2019-02-27T11:15:57.969Z,416
2019-02-27T11:17:02.004Z,416
2019-02-27T11:18:04.241Z,408
2019-02-27T11:19:00.694Z,408
2019-02-27T11:20:01.268Z,412
2019-02-27T11:21:01.848Z,408
2019-02-27T11:22:02.430Z,408
2019-02-27T11:23:06.715Z,408
2019-02-27T11:24:04.584Z,408
2019-02-27T11:25:05.164Z,408
2019-02-27T11:26:05.735Z,412
2019-02-27T11:27:06.907Z,408
2019-02-27T11:28:07.458Z,412
2019-02-27T11:29:08.046Z,408
2019-02-27T11:30:08.620Z,412
2019-02-27T11:31:11.047Z,412
2019-02-27T11:32:10.762Z,412
2019-02-27T11:33:11.334Z,408
2019-02-27T11:34:11.914Z,412
2019-02-27T11:35:12.484Z,412
2019-02-27T11:36:13.060Z,416
2019-02-27T11:37:14.332Z,412
2019-02-27T11:38:15.204Z,416
2019-02-27T11:39:15.791Z,416
2019-02-27T11:40:16.368Z,416
2019-02-27T11:41:16.944Z,416
2019-02-27T11:42:17.518Z,416
2019-02-27T11:43:18.095Z,416
2019-02-27T11:44:18.680Z,416
2019-02-27T11:45:23.793Z,416
2019-02-27T11:46:20.824Z,416
2019-02-27T11:47:21.399Z,416
2019-02-27T11:48:22.862Z,416
2019-02-27T11:49:22.555Z,416
2019-02-27T11:50:23.130Z,416
2019-02-27T11:51:23.707Z,420
2019-02-27T11:52:27.817Z,420
2019-02-27T11:53:24.863Z,420
2019-02-27T11:54:25.448Z,420
2019-02-27T11:55:26.025Z,420
2019-02-27T11:56:26.601Z,420
2019-02-27T11:57:27.338Z,420
2019-02-27T11:58:28.747Z,420
2019-02-27T11:59:29.321Z,424
2019-02-27T12:00:29.898Z,424
2019-02-27T12:01:32.106Z,420
2019-02-27T12:02:37.053Z,420
2019-02-27T12:03:32.625Z,424
2019-02-27T12:04:33.212Z,424
2019-02-27T12:05:34.434Z,420
2019-02-27T12:06:34.380Z,416
2019-02-27T12:07:34.953Z,420
2019-02-27T12:08:35.529Z,420
2019-02-27T12:09:36.104Z,420
2019-02-27T12:10:36.680Z,416
2019-02-27T12:11:37.256Z,412
2019-02-27T12:12:37.831Z,416
2019-02-27T12:13:38.408Z,416
2019-02-27T12:14:38.983Z,420
2019-02-27T12:15:43.399Z,416
2019-02-27T12:16:41.129Z,416
2019-02-27T12:17:41.706Z,416
2019-02-27T12:18:42.290Z,416
2019-02-27T12:19:45.192Z,420
2019-02-27T12:20:44.439Z,420
2019-02-27T12:21:45.012Z,416
2019-02-27T12:22:45.589Z,412
2019-02-27T12:23:46.164Z,416
2019-02-27T12:24:46.738Z,416
2019-02-27T12:25:47.317Z,416
2019-02-27T12:26:47.890Z,416
2019-02-27T12:27:49.613Z,416
2019-02-27T12:28:52.434Z,416
2019-02-27T12:29:51.608Z,416
2019-02-27T12:30:52.186Z,420
2019-02-27T12:31:52.770Z,416
2019-02-27T12:32:56.713Z,416
2019-02-27T12:33:54.918Z,416
2019-02-27T12:34:55.494Z,420
2019-02-27T12:35:56.071Z,420
2019-02-27T12:36:56.646Z,416
2019-02-27T12:37:57.225Z,420
2019-02-27T12:38:57.798Z,420
2019-02-27T12:39:58.377Z,416
2019-02-27T12:40:59.091Z,412
2019-02-27T12:41:59.602Z,416
2019-02-27T12:43:00.189Z,420
2019-02-27T12:44:00.772Z,420
2019-02-27T12:45:01.390Z,416
2019-02-27T12:46:01.931Z,416
2019-02-27T12:47:05.557Z,416
2019-02-27T12:48:03.101Z,416
2019-02-27T12:49:03.680Z,416
2019-02-27T12:50:04.261Z,416
2019-02-27T12:51:04.837Z,416
2019-02-27T12:52:05.415Z,420
2019-02-27T12:53:06.000Z,416
2019-02-27T12:54:06.578Z,416
2019-02-27T12:55:07.152Z,420
2019-02-27T12:56:07.973Z,416
2019-02-27T12:57:08.310Z,416
2019-02-27T12:58:08.886Z,420
2019-02-27T12:59:09.463Z,420
2019-02-27T13:00:10.038Z,424
2019-02-27T13:01:10.613Z,420
2019-02-27T13:02:11.192Z,420
2019-02-27T13:03:11.767Z,416
2019-02-27T13:04:16.115Z,420
2019-02-27T13:05:13.924Z,420
2019-02-27T13:06:14.499Z,420
2019-02-27T13:07:15.078Z,420
2019-02-27T13:08:16.354Z,420
2019-02-27T13:09:17.269Z,420
2019-02-27T13:10:17.800Z,420
2019-02-27T13:11:18.378Z,424
2019-02-27T13:12:18.966Z,420
2019-02-27T13:13:19.542Z,424
2019-02-27T13:14:20.130Z,424
2019-02-27T13:15:20.708Z,424
2019-02-27T13:16:21.295Z,424
2019-02-27T13:17:22.275Z,424
2019-02-27T13:18:22.457Z,428
2019-02-27T13:19:23.034Z,424
2019-02-27T13:20:23.613Z,424
2019-02-27T13:21:24.189Z,420
2019-02-27T13:22:26.283Z,424
2019-02-27T13:23:26.335Z,424
2019-02-27T13:24:26.912Z,424
2019-02-27T13:25:27.486Z,424
2019-02-27T13:26:28.062Z,428
2019-02-27T13:27:28.640Z,428
2019-02-27T13:28:29.228Z,424
2019-02-27T13:29:29.803Z,428
2019-02-27T13:30:30.390Z,428
2019-02-27T13:31:30.966Z,428
2019-02-27T13:32:31.542Z,428
2019-02-27T13:33:32.983Z,428
2019-02-27T13:34:32.752Z,428
2019-02-27T13:35:33.329Z,428
2019-02-27T13:36:34.689Z,432
2019-02-27T13:37:35.251Z,432
2019-02-27T13:38:36.993Z,432
2019-02-27T13:39:37.402Z,436
2019-02-27T13:40:37.987Z,436
2019-02-27T13:41:38.563Z,436
2019-02-27T13:42:39.151Z,440
2019-02-27T13:43:39.728Z,440
2019-02-27T13:44:40.304Z,440
2019-02-27T13:45:40.881Z,440
2019-02-27T13:46:41.470Z,444
2019-02-27T13:47:42.046Z,444
2019-02-27T13:48:42.622Z,444
2019-02-27T13:49:45.043Z,448
2019-02-27T13:50:44.767Z,448
2019-02-27T13:51:45.343Z,448
2019-02-27T13:52:49.658Z,456
2019-02-27T13:53:47.493Z,460
2019-02-27T13:54:48.066Z,456
2019-02-27T13:55:49.001Z,460
2019-02-27T13:56:49.601Z,460
2019-02-27T13:57:50.179Z,464
2019-02-27T13:58:50.755Z,464
2019-02-27T13:59:51.335Z,464
2019-02-27T14:00:53.610Z,468
2019-02-27T14:01:53.479Z,468
2019-02-27T14:02:54.055Z,468
2019-02-27T14:03:54.633Z,468
2019-02-27T14:04:57.324Z,472
2019-02-27T14:05:56.781Z,472
2019-02-27T14:06:57.360Z,472
2019-02-27T14:07:58.756Z,472
2019-02-27T14:08:59.370Z,472
2019-02-27T14:09:59.948Z,472
2019-02-27T14:11:00.537Z,472
2019-02-27T14:12:01.113Z,472
2019-02-27T14:13:01.689Z,472
2019-02-27T14:14:02.263Z,476
2019-02-27T14:15:02.857Z,476
2019-02-27T14:16:03.428Z,480
2019-02-27T14:17:04.005Z,476
2019-02-27T14:18:04.590Z,480
2019-02-27T14:19:05.169Z,480
2019-02-27T14:20:05.747Z,480
2019-02-27T14:21:06.326Z,480
2019-02-27T14:22:07.559Z,484
2019-02-27T14:23:08.473Z,484